Time;durP1;ratioP1;P1;durP2;ratioP2;P2;SDS_P1;SDS_P2;PMS_P1;PMS_P2;Temp;Humidity;BMP_temperature;BMP_pressure;BME280_temperature;BME280_humidity;BME280_pressure;Samples;Min_cycle;Max_cycle;Signal;HPM_P1;HPM_P2
2021/09/13 00:01:39;;;;;;;9.35;5.20;;;;;;;14.11;93.84;98114.72;4989974;28;20265;-60
2021/09/13 00:04:05;;;;;;;8.18;4.78;;;;;;;13.99;94.83;98121.47;4988060;28;20034;-58
2021/09/13 00:06:33;;;;;;;10.07;4.70;;;;;;;14.22;93.32;98114.97;4987545;28;20041;-58
2021/09/13 00:08:58;;;;;;;15.15;5.78;;;;;;;13.90;94.15;98111.47;4988301;28;20148;-58
2021/09/13 00:11:24;;;;;;;7.38;4.60;;;;;;;14.40;94.01;98114.91;4989941;28;20084;-58
2021/09/13 00:13:49;;;;;;;12.07;5.65;;;;;;;14.07;92.97;98116.66;4990192;28;20025;-60
2021/09/13 00:16:15;;;;;;;10.30;5.40;;;;;;;14.02;93.66;98116.06;4990690;28;20393;-58
2021/09/13 00:18:40;;;;;;;8.40;4.82;;;;;;;14.16;93.09;98111.84;4990627;28;20057;-58
2021/09/13 00:21:05;;;;;;;8.95;4.80;;;;;;;14.31;92.13;98111.00;4990134;28;20859;-57
2021/09/13 00:23:31;;;;;;;7.45;4.53;;;;;;;14.21;92.22;98115.91;4988909;28;20420;-61
2021/09/13 00:25:56;;;;;;;7.05;4.55;;;;;;;14.39;92.93;98108.84;4987781;28;20052;-59
2021/09/13 00:28:22;;;;;;;7.53;4.55;;;;;;;14.15;91.86;98115.41;4989796;28;20110;-58
2021/09/13 00:30:48;;;;;;;9.20;4.85;;;;;;;13.85;92.29;98110.84;4987066;28;20547;-59
2021/09/13 00:33:13;;;;;;;8.85;4.60;;;;;;;13.96;92.18;98111.13;4989763;28;20025;-58
2021/09/13 00:35:41;;;;;;;13.10;5.45;;;;;;;13.52;93.85;98116.91;4986747;28;20120;-61
2021/09/13 00:38:06;;;;;;;9.80;5.40;;;;;;;13.58;93.51;98111.38;4990449;28;20038;-58
2021/09/13 00:40:31;;;;;;;9.25;5.22;;;;;;;13.61;93.88;98111.19;4987936;28;20065;-58
2021/09/13 00:42:57;;;;;;;7.72;4.82;;;;;;;13.73;93.83;98114.09;4989952;28;20088;-58
2021/09/13 00:45:23;;;;;;;10.68;4.90;;;;;;;13.86;93.75;98100.28;4987053;28;20061;-58
2021/09/13 00:47:48;;;;;;;8.68;5.10;;;;;;;13.86;93.08;98102.06;4990020;28;20085;-58
2021/09/13 00:50:14;;;;;;;9.65;4.90;;;;;;;13.69;94.10;98109.03;4988120;28;20331;-58
2021/09/13 00:52:40;;;;;;;9.77;4.80;;;;;;;13.46;94.86;98112.00;4989673;28;20045;-59
2021/09/13 00:55:06;;;;;;;10.23;5.25;;;;;;;13.64;93.78;98108.44;4986813;28;20077;-58
2021/09/13 00:57:32;;;;;;;14.57;4.75;;;;;;;13.71;94.09;98100.22;4990487;28;20069;-58
2021/09/13 00:59:57;;;;;;;9.20;5.43;;;;;;;13.61;93.68;98108.56;4988422;28;20026;-59
2021/09/13 01:02:22;;;;;;;9.70;5.40;;;;;;;13.57;93.87;98103.59;4989450;28;20034;-58
2021/09/13 01:04:48;;;;;;;11.57;5.63;;;;;;;13.81;93.76;98101.47;4990023;28;20025;-59
2021/09/13 01:07:14;;;;;;;8.38;5.65;;;;;;;13.55;94.09;98106.28;4987983;28;20388;-58
2021/09/13 01:09:39;;;;;;;9.38;5.82;;;;;;;13.51;94.87;98104.75;5002571;28;20112;-57
2021/09/13 01:12:06;;;;;;;10.60;5.40;;;;;;;13.45;95.64;98105.91;4984725;28;20543;-58
2021/09/13 01:14:36;;;;;;;9.30;5.07;;;;;;;14.06;93.93;98101.00;4988954;28;20034;-59
2021/09/13 01:17:02;;;;;;;8.98;4.38;;;;;;;14.26;91.42;98094.66;4986816;28;20179;-58
2021/09/13 01:19:27;;;;;;;7.40;4.45;;;;;;;14.38;92.70;98101.03;4990176;28;20018;-59
2021/09/13 01:21:54;;;;;;;7.78;4.90;;;;;;;13.77;91.59;98098.16;4990027;28;20874;-59
2021/09/13 01:24:19;;;;;;;8.73;4.85;;;;;;;13.65;92.66;98098.78;4987676;28;20026;-58
2021/09/13 01:26:45;;;;;;;7.88;4.75;;;;;;;13.55;94.56;98103.66;4987464;28;20034;-59
2021/09/13 01:29:10;;;;;;;8.80;5.07;;;;;;;13.57;93.45;98099.19;4989336;28;20407;-58
2021/09/13 01:31:36;;;;;;;7.22;4.13;;;;;;;13.86;94.56;98104.69;4987659;28;20057;-58
2021/09/13 01:34:01;;;;;;;9.43;4.68;;;;;;;13.87;91.71;98101.13;4988831;28;20075;-59
2021/09/13 01:36:27;;;;;;;10.80;5.10;;;;;;;13.27;93.15;98099.78;4986439;28;20481;-59
2021/09/13 01:38:52;;;;;;;10.15;5.30;;;;;;;13.48;93.39;98104.91;4992824;28;20051;-58
2021/09/13 01:41:17;;;;;;;11.07;4.57;;;;;;;13.49;92.81;98107.44;4986387;28;20477;-59
2021/09/13 01:43:43;;;;;;;7.43;5.00;;;;;;;13.09;93.94;98108.56;4986775;28;20231;-58
2021/09/13 01:46:08;;;;;;;12.32;4.95;;;;;;;13.28;95.74;98109.34;4988209;28;20045;-59
2021/09/13 01:48:33;;;;;;;7.88;4.72;;;;;;;13.34;92.08;98105.59;4986535;28;20026;-58
2021/09/13 01:50:59;;;;;;;8.50;4.43;;;;;;;13.48;90.17;98110.13;4988728;28;20616;-59
2021/09/13 01:53:24;;;;;;;7.68;4.80;;;;;;;13.12;91.91;98111.03;4989629;28;20414;-59
2021/09/13 01:55:49;;;;;;;9.65;5.35;;;;;;;12.96;93.38;98107.47;4988447;28;20034;-58
2021/09/13 01:58:17;;;;;;;7.57;4.80;;;;;;;12.91;93.67;98100.69;4989334;28;20103;-58
2021/09/13 02:00:42;;;;;;;7.93;5.05;;;;;;;12.99;93.86;98105.53;4988679;28;20044;-58
2021/09/13 02:03:07;;;;;;;7.63;4.93;;;;;;;12.76;95.04;98106.69;4987171;28;20034;-59
2021/09/13 02:05:33;;;;;;;8.65;4.72;;;;;;;12.64;95.29;98102.03;4989331;28;20685;-58
2021/09/13 02:07:58;;;;;;;9.50;5.03;;;;;;;12.82;94.72;98106.38;4987909;28;20013;-60
2021/09/13 02:10:23;;;;;;;11.68;5.40;;;;;;;12.85;93.92;98097.53;4987077;28;20065;-58
2021/09/13 02:12:49;;;;;;;9.32;5.03;;;;;;;13.11;93.93;98109.34;4990100;28;20026;-59
2021/09/13 02:15:14;;;;;;;8.38;4.78;;;;;;;12.88;93.46;98102.59;4988391;28;20576;-60
2021/09/13 02:17:40;;;;;;;8.77;4.63;;;;;;;13.05;94.04;98107.00;4992207;28;20030;-59
2021/09/13 02:20:05;;;;;;;7.90;4.72;;;;;;;13.27;91.74;98102.41;4986076;28;20036;-59
2021/09/13 02:22:31;;;;;;;10.18;4.82;;;;;;;13.31;94.51;98108.38;4987353;28;20392;-58
2021/09/13 02:24:56;;;;;;;8.05;5.05;;;;;;;12.87;92.75;98108.78;4987441;28;20085;-58
2021/09/13 02:27:21;;;;;;;10.13;5.20;;;;;;;12.71;94.72;98106.88;4988226;28;20151;-59
2021/09/13 02:29:47;;;;;;;10.18;5.10;;;;;;;12.70;93.82;98106.94;4986707;28;20059;-59
2021/09/13 02:32:12;;;;;;;10.63;4.70;;;;;;;12.53;95.92;98115.59;4991519;28;20137;-60
2021/09/13 02:34:37;;;;;;;9.50;5.00;;;;;;;12.57;94.28;98111.91;4993626;28;20060;-58
2021/09/13 02:37:03;;;;;;;10.48;5.20;;;;;;;12.40;95.30;98110.09;4989882;28;20038;-59
2021/09/13 02:39:28;;;;;;;12.15;5.30;;;;;;;12.68;94.41;98116.66;4992576;28;20806;-58
2021/09/13 02:41:54;;;;;;;7.22;4.57;;;;;;;12.79;94.83;98121.38;4990458;28;20042;-59
2021/09/13 02:44:19;;;;;;;10.40;4.97;;;;;;;13.23;91.87;98115.72;4993527;28;20029;-58
2021/09/13 02:46:44;;;;;;;8.45;4.70;;;;;;;12.85;92.72;98106.22;4991991;28;20041;-59
2021/09/13 02:49:10;;;;;;;8.52;5.03;;;;;;;12.69;92.97;98111.34;4992147;28;20083;-58
2021/09/13 02:51:35;;;;;;;9.50;4.28;;;;;;;13.43;90.57;98106.91;4990088;28;20045;-58
2021/09/13 02:54:01;;;;;;;9.40;4.15;;;;;;;13.15;91.64;98108.25;4991732;28;20033;-58
2021/09/13 02:56:26;;;;;;;8.43;4.72;;;;;;;12.64;91.60;98104.63;4991919;28;20034;-59
2021/09/13 02:58:56;;;;;;;8.57;4.80;;;;;;;12.66;93.85;98101.03;4991534;28;20026;-58
2021/09/13 03:01:21;;;;;;;9.55;4.95;;;;;;;12.26;94.47;98105.53;4990995;28;20305;-58
2021/09/13 03:03:47;;;;;;;12.20;5.55;;;;;;;12.24;94.41;98104.75;5000463;28;20136;-58
2021/09/13 03:06:13;;;;;;;11.55;5.32;;;;;;;12.33;94.81;98101.72;4989541;28;20038;-58
2021/09/13 03:08:39;;;;;;;12.23;5.30;;;;;;;12.24;94.19;98098.66;4993525;28;20060;-58
2021/09/13 03:11:04;;;;;;;8.35;4.88;;;;;;;12.41;93.62;98096.13;4991248;28;20447;-60
2021/09/13 03:13:30;;;;;;;9.40;4.68;;;;;;;12.94;93.48;98097.09;4992926;28;20035;-60
2021/09/13 03:15:55;;;;;;;9.02;4.80;;;;;;;12.87;91.48;98095.69;4991608;28;20326;-60
2021/09/13 03:18:20;;;;;;;9.73;4.80;;;;;;;12.72;90.99;98092.06;4990883;28;20096;-58
2021/09/13 03:20:48;;;;;;;7.70;4.00;;;;;;;13.08;92.25;98091.16;4988634;28;20073;-59
2021/09/13 03:23:13;;;;;;;9.60;4.72;;;;;;;12.64;91.60;98097.63;4991902;28;20081;-59
2021/09/13 03:25:41;;;;;;;9.68;5.07;;;;;;;12.32;93.74;98086.09;4990636;28;20042;-59
2021/09/13 03:28:06;;;;;;;8.88;5.35;;;;;;;11.95;95.61;98096.47;4988825;28;20033;-59
2021/09/13 03:30:32;;;;;;;8.65;5.10;;;;;;;11.99;95.53;98094.56;4989550;28;20050;-61
2021/09/13 03:32:57;;;;;;;9.93;5.70;;;;;;;12.08;95.73;98104.59;4990361;28;20021;-58
2021/09/13 03:35:22;;;;;;;7.65;4.75;;;;;;;12.43;95.34;98094.28;4988559;28;20517;-58
2021/09/13 03:37:48;;;;;;;13.40;5.10;;;;;;;12.23;94.17;98103.03;4993098;28;20034;-58
2021/09/13 03:40:14;;;;;;;9.50;5.20;;;;;;;12.16;93.40;98101.63;4990084;28;20045;-58
2021/09/13 03:42:39;;;;;;;10.75;5.20;;;;;;;11.99;94.46;98099.78;4988893;28;20030;-60
2021/09/13 03:45:05;;;;;;;13.30;5.70;;;;;;;11.95;95.69;98095.63;4989964;28;20169;-58
2021/09/13 03:47:31;;;;;;;9.95;5.05;;;;;;;11.99;94.22;98091.94;4988817;28;20592;-58
2021/09/13 03:49:56;;;;;;;9.73;4.72;;;;;;;12.06;95.75;98100.38;4987650;28;20053;-59
2021/09/13 03:52:22;;;;;;;10.48;5.28;;;;;;;11.85;95.24;98097.75;4984798;28;20077;-58
2021/09/13 03:54:47;;;;;;;8.63;4.80;;;;;;;11.81;95.88;98090.97;4991115;28;20029;-59
2021/09/13 03:57:12;;;;;;;11.48;5.07;;;;;;;11.80;95.96;98093.63;4989314;28;20049;-60
2021/09/13 03:59:38;;;;;;;8.65;4.32;;;;;;;12.11;95.06;98103.59;4990783;28;20041;-58
2021/09/13 04:02:03;;;;;;;6.30;4.50;;;;;;;12.18;94.03;98093.72;4988710;28;20061;-59
2021/09/13 04:04:29;;;;;;;7.40;4.65;;;;;;;12.00;94.01;98095.41;4993226;28;20113;-58
2021/09/13 04:07:36;;;;;;;7.65;4.85;;;;;;;11.94;93.77;98099.13;4989876;28;20042;-58
2021/09/13 04:12:12;;;;;;;8.48;4.70;;;;;;;12.00;94.50;98093.63;4991072;28;20034;-58
2021/09/13 04:14:37;;;;;;;9.15;4.97;;;;;;;11.93;93.85;98095.69;4992526;28;20033;-58
2021/09/13 04:17:02;;;;;;;9.32;5.28;;;;;;;12.07;93.30;98092.44;4989943;28;20038;-58
2021/09/13 04:19:28;;;;;;;6.68;4.55;;;;;;;12.27;92.33;98088.91;4989894;28;20399;-60
2021/09/13 04:21:54;;;;;;;6.10;4.20;;;;;;;11.98;93.52;98092.84;4991676;28;20077;-58
2021/09/13 04:24:19;;;;;;;6.45;4.53;;;;;;;11.73;96.17;98083.47;4989633;28;20408;-60
2021/09/13 04:26:45;;;;;;;6.90;4.70;;;;;;;11.89;95.05;98095.84;4989409;28;20041;-58
2021/09/13 04:29:11;;;;;;;7.88;4.95;;;;;;;11.64;94.40;98099.56;4989087;28;20396;-59
2021/09/13 04:31:36;;;;;;;9.45;5.07;;;;;;;11.56;93.86;98092.06;4989672;28;20037;-59
2021/09/13 04:34:02;;;;;;;9.05;5.00;;;;;;;11.24;96.36;98090.81;4989749;28;20065;-58
2021/09/13 04:36:28;;;;;;;9.15;5.10;;;;;;;11.45;96.40;98088.19;4990928;28;20539;-58
2021/09/13 04:38:53;;;;;;;6.85;4.68;;;;;;;11.88;93.10;98086.31;4997551;28;20102;-59
2021/09/13 04:41:19;;;;;;;8.30;5.07;;;;;;;11.77;92.51;98085.03;4988923;28;20039;-58
2021/09/13 04:43:44;;;;;;;8.20;5.00;;;;;;;11.61;94.57;98084.00;4991149;28;20508;-57
2021/09/13 04:46:10;;;;;;;7.65;5.25;;;;;;;11.55;94.79;98095.56;4989380;28;21006;-58
2021/09/13 04:48:35;;;;;;;10.70;4.88;;;;;;;11.55;94.42;98098.19;4994386;28;20026;-58
2021/09/13 04:51:01;;;;;;;8.05;4.80;;;;;;;11.51;95.74;98093.16;4985398;28;20621;-58
2021/09/13 04:53:26;;;;;;;8.90;5.25;;;;;;;11.53;95.41;98101.78;4988490;28;20365;-58
2021/09/13 04:55:51;;;;;;;8.55;5.00;;;;;;;11.65;95.10;98093.44;4987212;28;20046;-58
2021/09/13 04:58:17;;;;;;;10.35;5.68;;;;;;;11.59;95.63;98091.06;4988210;28;20044;-58
2021/09/13 05:00:42;;;;;;;7.97;5.00;;;;;;;11.64;96.05;98099.56;4987196;28;20089;-58
2021/09/13 05:03:09;;;;;;;9.82;4.93;;;;;;;11.86;94.62;98101.22;4986821;28;20030;-59
2021/09/13 05:05:34;;;;;;;7.07;4.78;;;;;;;11.65;96.38;98096.03;4991775;28;20492;-59
2021/09/13 05:08:00;;;;;;;9.30;5.13;;;;;;;11.81;94.34;98106.63;4992132;28;20111;-59
2021/09/13 05:10:25;;;;;;;9.00;4.82;;;;;;;11.94;94.54;98099.13;4991062;28;20399;-59
2021/09/13 05:12:51;;;;;;;6.93;4.72;;;;;;;11.98;94.38;98092.84;4992508;28;20061;-59
2021/09/13 05:15:17;;;;;;;10.00;4.90;;;;;;;11.94;93.44;98099.13;4989960;28;20057;-59
2021/09/13 05:17:42;;;;;;;8.15;5.13;;;;;;;12.11;93.02;98093.13;4991501;28;20054;-58
2021/09/13 05:20:08;;;;;;;9.50;4.82;;;;;;;12.14;93.07;98099.06;4990519;28;20083;-59
2021/09/13 05:22:34;;;;;;;8.82;4.90;;;;;;;12.14;93.43;98096.47;4993919;28;20122;-58
2021/09/13 05:24:59;;;;;;;7.15;4.45;;;;;;;12.47;92.44;98090.59;4992113;28;20034;-58
2021/09/13 05:27:24;;;;;;;7.05;4.47;;;;;;;13.03;90.84;98104.50;4992199;28;20045;-60
2021/09/13 05:29:50;;;;;;;7.13;4.65;;;;;;;12.93;90.63;98103.22;4990906;28;20026;-58
2021/09/13 05:32:15;;;;;;;6.60;4.72;;;;;;;13.44;90.70;98103.38;4991095;28;20050;-59
2021/09/13 05:34:41;;;;;;;8.38;4.57;;;;;;;13.86;89.64;98100.28;4992264;28;20098;-59
2021/09/13 05:37:06;;;;;;;8.65;4.78;;;;;;;14.01;86.44;98097.78;4990404;28;20178;-61
2021/09/13 05:39:32;;;;;;;6.47;4.20;;;;;;;13.88;87.17;98094.97;4991115;28;20041;-59
2021/09/13 05:41:58;;;;;;;9.18;4.43;;;;;;;14.22;87.17;98109.72;4988255;28;20046;-59
2021/09/13 05:44:24;;;;;;;6.57;4.35;;;;;;;13.92;88.09;98103.53;4991644;28;20097;-58
2021/09/13 05:46:51;;;;;;;8.00;4.70;;;;;;;13.82;86.67;98109.25;4989378;28;20684;-59
2021/09/13 05:49:16;;;;;;;7.78;4.57;;;;;;;14.55;86.78;98113.22;4987914;28;20120;-59
2021/09/13 05:51:45;;;;;;;8.15;4.40;;;;;;;14.26;86.21;98102.53;4989036;28;20129;-59
2021/09/13 05:54:11;;;;;;;7.72;4.47;;;;;;;14.25;85.51;98108.72;4992964;28;20021;-59
2021/09/13 05:56:37;;;;;;;8.70;5.75;;;;;;;14.36;86.33;98111.63;4984291;28;20184;-60
2021/09/13 05:59:02;;;;;;;7.53;6.28;;;;;;;15.44;80.72;98105.56;4956063;28;20077;-58
2021/09/13 06:01:27;;;;;;;7.30;4.00;;;;;;;15.94;79.05;98106.09;4989182;28;20041;-59
2021/09/13 06:03:53;;;;;;;6.07;4.30;;;;;;;14.68;82.07;98108.19;4990750;28;20490;-60
2021/09/13 06:06:18;;;;;;;6.97;4.00;;;;;;;14.84;83.44;98109.84;4989880;28;20069;-61
2021/09/13 06:08:44;;;;;;;8.05;4.80;;;;;;;14.57;83.56;98116.63;4988905;28;20030;-60
2021/09/13 06:11:09;;;;;;;6.88;3.85;;;;;;;15.29;82.20;98114.31;4990272;28;20050;-59
2021/09/13 06:13:34;;;;;;;9.40;4.40;;;;;;;15.56;80.36;98112.69;4987933;28;20018;-59
2021/09/13 06:16:00;;;;;;;10.65;4.70;;;;;;;14.66;83.54;98116.13;4988351;28;20038;-60
2021/09/13 06:18:26;;;;;;;5.88;4.40;;;;;;;15.34;80.48;98112.28;4988976;28;20432;-59
2021/09/13 06:20:52;;;;;;;7.55;3.92;;;;;;;15.55;81.75;98116.28;4989615;28;20068;-60
2021/09/13 06:23:17;;;;;;;9.30;4.40;;;;;;;15.33;83.01;98115.81;4990208;28;20137;-59
2021/09/13 06:25:45;;;;;;;7.55;4.25;;;;;;;15.51;83.06;98119.16;4987201;28;20038;-59
2021/09/13 06:28:10;;;;;;;6.43;3.85;;;;;;;16.42;79.07;98118.94;4990007;28;20033;-60
2021/09/13 06:30:36;;;;;;;10.32;4.18;;;;;;;16.91;76.34;98118.50;4989524;28;20046;-63
2021/09/13 06:33:02;;;;;;;6.95;3.92;;;;;;;18.44;72.78;98116.94;4988438;28;20451;-59
2021/09/13 06:35:27;;;;;;;9.02;4.10;;;;;;;17.72;72.51;98122.78;4991470;28;20046;-58
2021/09/13 06:37:52;;;;;;;7.20;4.07;;;;;;;18.44;71.10;98127.50;4992463;28;20105;-60
2021/09/13 06:40:18;;;;;;;5.65;3.50;;;;;;;20.43;66.02;98124.06;5004731;28;20037;-60
2021/09/13 06:42:43;;;;;;;8.07;3.85;;;;;;;20.23;62.97;98126.47;4992316;28;20484;-61
2021/09/13 06:45:12;;;;;;;8.02;3.50;;;;;;;20.86;64.10;98125.97;4990668;28;20029;-62
2021/09/13 06:47:45;;;;;;;7.00;3.17;;;;;;;23.07;57.22;98124.00;4989719;28;20018;-62
2021/09/13 06:50:16;;;;;;;6.22;3.30;;;;;;;24.51;53.36;98127.50;4989760;28;20066;-58
2021/09/13 06:52:41;;;;;;;8.32;3.30;;;;;;;25.23;52.10;98124.97;4990066;28;20029;-58
2021/09/13 06:55:07;;;;;;;4.88;3.20;;;;;;;26.49;47.11;98122.84;4990889;28;20496;-58
2021/09/13 06:57:35;;;;;;;5.50;3.35;;;;;;;26.31;47.62;98114.91;4990496;28;20100;-59
2021/09/13 07:00:03;;;;;;;4.25;3.08;;;;;;;25.76;48.42;98113.41;4987359;28;20038;-60
2021/09/13 07:02:29;;;;;;;6.25;3.38;;;;;;;25.21;49.68;98119.75;4990011;28;20543;-59
2021/09/13 07:04:54;;;;;;;5.90;3.05;;;;;;;26.52;46.67;98117.16;4990970;28;20038;-60
2021/09/13 07:07:19;;;;;;;5.00;3.10;;;;;;;27.06;46.64;98117.69;4990316;28;20215;-60
2021/09/13 07:09:45;;;;;;;5.35;2.90;;;;;;;27.85;44.63;98114.53;4989665;28;20041;-61
2021/09/13 07:12:11;;;;;;;6.50;3.20;;;;;;;25.87;47.64;98123.81;4989894;28;20045;-60
2021/09/13 07:14:36;;;;;;;5.93;3.20;;;;;;;26.31;47.81;98121.09;4989837;28;20030;-60
2021/09/13 07:17:02;;;;;;;4.25;3.10;;;;;;;26.04;48.93;98130.13;4990849;28;20038;-59
2021/09/13 07:19:27;;;;;;;4.38;3.10;;;;;;;26.55;47.62;98135.56;4990898;28;20054;-60
2021/09/13 07:21:52;;;;;;;6.03;3.10;;;;;;;26.87;47.02;98136.69;4991812;28;20113;-61
2021/09/13 07:24:20;;;;;;;6.18;3.30;;;;;;;28.21;44.19;98141.81;4993852;28;20411;-59
2021/09/13 07:26:47;;;;;;;4.10;3.20;;;;;;;28.89;42.07;98128.78;4993581;28;20529;-61
2021/09/13 07:29:13;;;;;;;4.00;2.90;;;;;;;28.87;43.48;98141.53;4994936;28;20040;-60
2021/09/13 07:31:38;;;;;;;4.90;3.10;;;;;;;30.44;40.27;98141.97;4993178;28;20042;-60
2021/09/13 07:34:05;;;;;;;4.50;2.90;;;;;;;30.56;38.86;98148.53;4993236;28;20030;-61
2021/09/13 07:36:32;;;;;;;5.63;3.20;;;;;;;29.98;40.52;98142.09;4993464;28;20041;-60
2021/09/13 07:38:58;;;;;;;5.05;3.10;;;;;;;31.41;38.35;98148.06;4994109;28;20162;-61
2021/09/13 07:41:23;;;;;;;5.65;3.30;;;;;;;29.97;40.02;98140.44;4991789;28;20050;-60
2021/09/13 07:43:48;;;;;;;5.10;2.70;;;;;;;31.91;36.84;98151.63;4993815;28;20060;-60
2021/09/13 07:46:16;;;;;;;5.03;2.90;;;;;;;31.70;37.29;98145.22;4992710;28;20376;-62
2021/09/13 07:48:41;;;;;;;5.50;3.00;;;;;;;31.69;37.55;98143.56;4994439;28;20057;-61
2021/09/13 07:51:07;;;;;;;5.28;3.05;;;;;;;29.49;41.02;98150.56;4993783;28;20042;-61
2021/09/13 07:53:32;;;;;;;7.40;3.03;;;;;;;31.48;38.12;98149.81;4994263;28;20034;-62
2021/09/13 07:55:58;;;;;;;5.28;3.03;;;;;;;31.22;38.28;98154.91;4991526;28;20053;-61
2021/09/13 07:58:23;;;;;;;6.47;3.00;;;;;;;32.81;35.12;98163.44;4993548;28;20050;-60
2021/09/13 08:00:49;;;;;;;6.10;3.03;;;;;;;29.81;39.63;98154.84;4991719;28;20429;-60
2021/09/13 08:03:14;;;;;;;6.07;3.08;;;;;;;30.57;38.64;98160.16;4991156;28;20072;-61
2021/09/13 08:05:39;;;;;;;4.93;3.10;;;;;;;31.46;37.60;98162.63;4990188;28;20659;-61
2021/09/13 08:08:05;;;;;;;7.28;3.33;;;;;;;31.57;37.57;98158.59;4994407;28;20406;-61
2021/09/13 08:10:30;;;;;;;6.65;3.03;;;;;;;32.05;37.66;98160.69;4994546;28;20133;-62
2021/09/13 08:12:56;;;;;;;6.65;3.20;;;;;;;31.86;36.75;98164.88;4992824;28;20145;-61
2021/09/13 08:15:23;;;;;;;8.27;3.03;;;;;;;33.14;35.43;98157.34;4994075;28;20519;-60
2021/09/13 08:17:48;;;;;;;4.15;2.85;;;;;;;32.13;37.65;98165.09;4992954;28;20505;-59
2021/09/13 08:20:14;;;;;;;4.82;3.08;;;;;;;29.76;41.34;98155.41;4992942;28;20062;-60
2021/09/13 08:22:39;;;;;;;4.93;3.15;;;;;;;31.62;38.42;98158.03;4993449;28;20412;-60
2021/09/13 08:25:05;;;;;;;4.43;2.95;;;;;;;33.55;34.04;98159.06;4992634;28;20396;-60
2021/09/13 08:27:31;;;;;;;4.93;3.20;;;;;;;30.88;38.01;98156.38;4991521;28;20050;-60
2021/09/13 08:29:56;;;;;;;5.10;2.90;;;;;;;30.09;40.63;98156.94;4989694;28;20021;-59
2021/09/13 08:32:21;;;;;;;8.38;3.22;;;;;;;32.14;36.39;98161.38;5001207;28;20119;-59
2021/09/13 08:34:47;;;;;;;5.22;2.97;;;;;;;33.37;35.43;98167.75;4991729;28;20041;-60
2021/09/13 08:37:12;;;;;;;4.22;2.85;;;;;;;34.45;32.88;98165.91;4990967;28;20358;-60
2021/09/13 08:39:37;;;;;;;5.18;3.10;;;;;;;32.75;35.30;98175.00;4990427;28;20085;-59
2021/09/13 08:42:03;;;;;;;4.15;2.90;;;;;;;33.91;33.70;98168.69;4993994;28;20088;-60
2021/09/13 08:44:32;;;;;;;4.25;2.85;;;;;;;32.65;35.99;98177.28;5007336;28;20034;-59
2021/09/13 08:47:03;;;;;;;4.13;2.70;;;;;;;34.38;32.45;98164.03;4990582;28;20518;-59
2021/09/13 08:49:32;;;;;;;4.60;2.90;;;;;;;32.71;35.15;98178.34;4991695;28;20157;-60
2021/09/13 08:51:57;;;;;;;5.55;2.80;;;;;;;32.53;34.64;98170.72;4993220;28;20042;-60
2021/09/13 08:54:26;;;;;;;3.65;2.72;;;;;;;32.45;35.50;98169.84;4993573;28;20037;-60
2021/09/13 08:56:55;;;;;;;5.43;2.70;;;;;;;32.97;34.12;98172.19;4992382;28;20046;-60
2021/09/13 08:59:23;;;;;;;4.50;2.90;;;;;;;33.54;34.12;98179.00;4989539;28;20460;-59
2021/09/13 09:01:51;;;;;;;6.47;2.80;;;;;;;31.37;36.51;98174.56;4988275;28;20030;-57
2021/09/13 09:04:17;;;;;;;4.60;2.70;;;;;;;31.99;36.46;98181.16;4986814;28;20087;-56
2021/09/13 09:06:44;;;;;;;4.97;2.70;;;;;;;31.71;36.60;98178.44;4985918;28;20047;-56
2021/09/13 09:09:22;;;;;;;4.80;2.60;;;;;;;32.20;35.42;98174.06;4986860;28;20120;-59
2021/09/13 09:12:01;;;;;;;3.53;2.40;;;;;;;32.16;36.02;98176.31;4988550;28;20037;-62
2021/09/13 09:14:29;;;;;;;3.28;2.15;;;;;;;32.77;34.63;98172.97;4987762;28;20030;-58
2021/09/13 09:17:03;;;;;;;4.55;2.47;;;;;;;31.28;36.12;98173.00;4987327;28;20030;-59
2021/09/13 09:19:28;;;;;;;3.63;2.30;;;;;;;33.23;32.58;98174.16;4996379;28;20034;-59
2021/09/13 09:21:54;;;;;;;4.05;2.10;;;;;;;33.51;31.37;98173.19;4987801;28;20424;-56
2021/09/13 09:24:20;;;;;;;3.22;2.08;;;;;;;32.13;34.26;98175.88;4988784;28;20173;-59
2021/09/13 09:27:05;;;;;;;3.40;2.20;;;;;;;33.01;32.98;98170.75;4987453;28;20882;-58
2021/09/13 09:29:33;;;;;;;4.13;2.15;;;;;;;31.66;34.90;98176.31;4997652;28;20030;-59
2021/09/13 09:31:59;;;;;;;2.72;1.85;;;;;;;32.88;32.81;98170.72;4989065;28;20037;-60
2021/09/13 09:34:28;;;;;;;3.35;2.10;;;;;;;33.31;32.19;98173.16;4989938;28;20182;-63
2021/09/13 09:36:59;;;;;;;2.80;1.85;;;;;;;33.46;31.79;98181.09;4987466;28;20073;-59
2021/09/13 09:39:29;;;;;;;3.30;2.08;;;;;;;31.89;35.55;98180.66;4990123;28;20867;-61
2021/09/13 09:41:56;;;;;;;4.68;2.15;;;;;;;31.65;36.02;98180.06;4989557;28;20056;-59
2021/09/13 09:44:22;;;;;;;5.50;2.13;;;;;;;31.78;34.86;98178.47;4989419;28;20034;-58
2021/09/13 09:46:48;;;;;;;3.72;2.10;;;;;;;32.18;34.51;98173.44;4979505;28;20526;-60
2021/09/13 09:49:24;;;;;;;3.10;2.08;;;;;;;31.19;36.71;98169.63;4987654;28;20283;-60
2021/09/13 09:51:56;;;;;;;5.93;2.00;;;;;;;32.18;36.08;98168.03;4988046;28;20038;-58
2021/09/13 09:54:29;;;;;;;5.63;1.98;;;;;;;30.94;37.58;98161.88;4988336;28;20018;-63
2021/09/13 09:57:00;;;;;;;4.07;2.30;;;;;;;31.14;36.18;98155.88;4988273;28;20038;-57
2021/09/13 09:59:35;;;;;;;3.63;2.00;;;;;;;33.17;33.71;98154.19;4989256;28;20088;-58
2021/09/13 10:02:11;;;;;;;4.28;2.13;;;;;;;32.60;34.77;98150.03;4988746;28;20030;-59
2021/09/13 10:04:36;;;;;;;3.95;1.85;;;;;;;32.34;34.35;98151.53;4987893;28;20653;-63
2021/09/13 10:07:02;;;;;;;6.68;2.40;;;;;;;29.87;38.08;98148.75;4986909;28;20038;-57
2021/09/13 10:09:30;;;;;;;4.10;2.10;;;;;;;32.51;33.99;98152.03;4989265;28;20065;-58
2021/09/13 10:12:02;;;;;;;4.80;2.30;;;;;;;30.78;37.11;98145.91;4988727;28;20137;-61
2021/09/13 10:14:29;;;;;;;7.07;2.10;;;;;;;32.29;35.14;98143.19;4989482;28;20634;-58
2021/09/13 10:16:56;;;;;;;4.40;2.30;;;;;;;30.04;38.13;98146.75;4986188;28;20034;-60
2021/09/13 10:19:22;;;;;;;2.58;1.95;;;;;;;31.90;34.75;98142.69;4988192;28;20038;-65
2021/09/13 10:21:50;;;;;;;3.65;2.20;;;;;;;29.67;38.34;98143.03;4987962;28;20524;-61
2021/09/13 10:24:22;;;;;;;4.15;2.10;;;;;;;30.69;36.75;98137.09;4990265;28;20492;-60
2021/09/13 10:26:50;;;;;;;4.25;2.17;;;;;;;29.26;39.69;98129.91;4988829;28;20034;-61
2021/09/13 10:29:21;;;;;;;3.00;1.92;;;;;;;29.60;40.40;98132.16;4975128;28;20161;-61
2021/09/13 10:31:46;;;;;;;5.57;2.10;;;;;;;29.66;40.35;98129.75;4984809;28;20049;-59
2021/09/13 10:34:22;;;;;;;3.00;1.85;;;;;;;29.77;40.43;98132.03;4988337;28;20030;-59
2021/09/13 10:37:16;;;;;;;3.08;1.90;;;;;;;29.22;41.99;98125.91;4988323;28;20042;-60
2021/09/13 10:39:53;;;;;;;2.75;2.10;;;;;;;28.32;40.81;98127.16;4988364;28;20030;-62
2021/09/13 10:42:27;;;;;;;2.80;1.90;;;;;;;30.32;38.27;98117.34;4988250;28;20050;-61
2021/09/13 10:45:03;;;;;;;2.40;1.90;;;;;;;30.87;38.88;98122.41;4995247;28;20555;-61
2021/09/13 10:47:29;;;;;;;2.70;1.80;;;;;;;31.03;38.40;98121.38;4987462;28;20042;-59
2021/09/13 10:50:14;;;;;;;4.60;2.03;;;;;;;30.27;36.76;98119.78;4989898;28;20149;-59
2021/09/13 10:52:40;;;;;;;3.38;2.00;;;;;;;28.28;40.20;98117.78;4989580;28;20033;-61
2021/09/13 10:55:08;;;;;;;4.60;2.00;;;;;;;29.18;41.83;98119.22;4990464;28;20033;-60
2021/09/13 10:58:03;;;;;;;3.92;1.95;;;;;;;28.66;41.56;98119.88;4991193;28;20078;-59
2021/09/13 11:00:37;;;;;;;3.42;2.00;;;;;;;28.51;40.98;98112.50;4990309;28;20626;-59
2021/09/13 11:03:35;;;;;;;3.97;2.10;;;;;;;28.60;40.23;98108.81;4990799;28;20029;-58
2021/09/13 11:06:07;;;;;;;3.47;2.00;;;;;;;29.17;39.96;98106.81;4989877;28;20374;-59
2021/09/13 11:08:45;;;;;;;5.03;2.08;;;;;;;29.22;39.52;98112.47;4989112;28;20026;-61
2021/09/13 11:11:12;;;;;;;2.88;2.00;;;;;;;30.68;37.43;98111.22;4986209;28;20061;-58
2021/09/13 11:13:38;;;;;;;5.57;2.00;;;;;;;28.49;39.79;98111.84;4990028;28;20037;-60
2021/09/13 11:16:04;;;;;;;3.42;2.20;;;;;;;28.82;39.79;98109.00;4989670;28;20049;-59
2021/09/13 11:18:31;;;;;;;5.00;2.00;;;;;;;29.37;39.12;98105.34;4990068;28;20030;-58
2021/09/13 11:21:15;;;;;;;4.35;2.10;;;;;;;29.26;39.34;98113.78;4988348;28;20137;-62
2021/09/13 11:23:41;;;;;;;3.83;2.08;;;;;;;29.35;39.43;98102.00;4997541;28;20451;-60
2021/09/13 11:26:07;;;;;;;3.03;1.95;;;;;;;29.66;38.53;98109.09;4988607;28;20042;-59
2021/09/13 11:28:32;;;;;;;3.20;2.08;;;;;;;29.32;38.89;98104.19;4989093;28;20034;-57
2021/09/13 11:30:58;;;;;;;3.53;2.00;;;;;;;30.40;37.67;98108.34;4990567;28;20129;-60
2021/09/13 11:33:23;;;;;;;4.78;2.10;;;;;;;28.75;40.44;98100.03;4990450;28;20034;-60